createdAt,value
2023-03-08T00:00:10.050Z,0.7
2023-03-08T00:03:09.964Z,0.7
2023-03-08T00:06:10.143Z,0.6
2023-03-08T00:09:09.984Z,0.6
2023-03-08T00:12:09.990Z,0.5
2023-03-08T00:15:10.098Z,0.5
2023-03-08T00:18:10.264Z,0.6
2023-03-08T00:21:09.957Z,0.6
2023-03-08T00:24:10.046Z,0.7
2023-03-08T00:27:10.017Z,0.6
2023-03-08T00:30:10.088Z,0.6
2023-03-08T00:33:10.070Z,0.6
2023-03-08T00:36:10.129Z,0.6
2023-03-08T00:39:10.094Z,0.5
2023-03-08T00:42:10.134Z,0.5
2023-03-08T00:45:10.305Z,0.5
2023-03-08T00:48:10.065Z,0.4
2023-03-08T00:51:10.041Z,0.4
2023-03-08T00:54:10.097Z,0.3
2023-03-08T00:57:10.301Z,0.2
2023-03-08T01:00:10.105Z,0.2
2023-03-08T01:03:10.032Z,0.1
2023-03-08T01:06:10.012Z,0.2
2023-03-08T01:09:10.101Z,0.3
2023-03-08T01:12:10.080Z,0.5
2023-03-08T01:15:10.027Z,0.7
2023-03-08T01:18:10.127Z,0.9
2023-03-08T01:21:10.101Z,0.9
2023-03-08T01:24:10.037Z,1
2023-03-08T01:27:10.035Z,0.9
2023-03-08T01:30:10.140Z,0.9
2023-03-08T01:33:10.078Z,1
2023-03-08T01:36:10.459Z,1
2023-03-08T01:39:10.156Z,1.1
2023-03-08T01:42:10.081Z,1.1
2023-03-08T01:45:10.110Z,1.1
2023-03-08T01:48:10.082Z,1.2
2023-03-08T01:51:09.974Z,1.2
2023-03-08T01:54:10.012Z,1.3
2023-03-08T01:57:10.058Z,1.3
2023-03-08T02:00:10.100Z,1.3
2023-03-08T02:03:10.024Z,1.4
2023-03-08T02:06:10.114Z,1.4
2023-03-08T02:09:10.036Z,1.4
2023-03-08T02:12:10.054Z,1.5
2023-03-08T02:15:10.124Z,1.5
2023-03-08T02:18:10.150Z,1.5
2023-03-08T02:21:09.996Z,1.5
2023-03-08T02:24:10.037Z,1.6
2023-03-08T02:27:10.196Z,1.5
2023-03-08T02:30:10.175Z,1.4
2023-03-08T02:33:10.045Z,1.4
2023-03-08T02:36:10.393Z,1.4
2023-03-08T02:39:09.978Z,1.4
2023-03-08T02:42:10.042Z,1.4
2023-03-08T02:45:10.110Z,1.4
2023-03-08T02:48:10.104Z,1.4
2023-03-08T02:51:10.169Z,1.4
2023-03-08T02:54:10.131Z,1.3
2023-03-08T02:57:10.115Z,1.3
2023-03-08T03:00:10.186Z,1.3
2023-03-08T03:03:10.052Z,1.4
2023-03-08T03:06:10.346Z,1.4
2023-03-08T03:09:10.042Z,1.4
2023-03-08T03:12:10.327Z,1.4
2023-03-08T03:15:10.264Z,1.5
2023-03-08T03:18:10.373Z,1.4
2023-03-08T03:21:10.039Z,1.4
2023-03-08T03:24:10.023Z,1.2
2023-03-08T03:27:10.080Z,1.2
2023-03-08T03:30:10.112Z,1.1
2023-03-08T03:33:10.066Z,1
2023-03-08T03:36:10.308Z,0.9
2023-03-08T03:39:10.075Z,0.9
2023-03-08T03:42:10.098Z,0.8
2023-03-08T03:45:10.023Z,0.9
2023-03-08T03:48:10.059Z,0.9
2023-03-08T03:51:10.062Z,1.1
2023-03-08T03:54:11.803Z,1.1
2023-03-08T03:57:10.067Z,1.2
2023-03-08T04:00:10.047Z,1.2
2023-03-08T04:03:10.721Z,1.4
2023-03-08T04:06:10.039Z,1.4
2023-03-08T04:09:10.124Z,1.5
2023-03-08T04:12:10.102Z,1.6
2023-03-08T04:15:10.071Z,1.6
2023-03-08T04:18:10.045Z,1.5
2023-03-08T04:21:10.002Z,1.4
2023-03-08T04:24:10.198Z,1.4
2023-03-08T04:27:10.117Z,1.3
2023-03-08T04:30:10.110Z,1.2
2023-03-08T04:33:10.028Z,1.1
2023-03-08T04:36:10.293Z,1.1
2023-03-08T04:39:10.109Z,1
2023-03-08T04:42:10.098Z,0.9
2023-03-08T04:45:10.117Z,0.8
2023-03-08T04:48:10.027Z,0.7
2023-03-08T04:51:09.986Z,0.6
2023-03-08T04:54:10.049Z,0.6
2023-03-08T04:57:10.068Z,0.5
2023-03-08T05:00:10.089Z,0.4
2023-03-08T05:03:09.993Z,0.4
2023-03-08T05:06:10.041Z,0.4
2023-03-08T05:09:10.114Z,0.4
2023-03-08T05:12:10.148Z,0.2
2023-03-08T05:15:10.080Z,0.2
2023-03-08T05:18:10.014Z,0.1
2023-03-08T05:21:10.028Z,0.1
2023-03-08T05:24:10.171Z,0.1
2023-03-08T05:27:10.076Z,0
2023-03-08T05:30:10.117Z,-0.1
2023-03-08T05:33:10.023Z,-0.1
2023-03-08T05:36:10.399Z,-0.2
2023-03-08T05:39:09.969Z,-0.2
2023-03-08T05:42:10.083Z,-0.1
2023-03-08T05:45:10.705Z,-0.1
2023-03-08T05:48:10.070Z,-0.2
2023-03-08T05:51:10.122Z,-0.2
2023-03-08T05:54:10.092Z,-0.2
2023-03-08T05:57:10.076Z,-0.3
2023-03-08T06:00:10.176Z,-0.2
2023-03-08T06:03:10.333Z,-0.3
2023-03-08T06:06:10.101Z,-0.3
2023-03-08T06:09:10.242Z,-0.2
2023-03-08T06:12:10.016Z,-0.2
2023-03-08T06:15:10.178Z,-0.2
2023-03-08T06:18:10.203Z,-0.2
2023-03-08T06:21:10.093Z,-0.2
2023-03-08T06:24:10.141Z,-0.1
2023-03-08T06:27:10.108Z,-0.1
2023-03-08T06:30:10.530Z,0.1
2023-03-08T06:33:10.129Z,0.1
2023-03-08T06:36:10.227Z,0.2
2023-03-08T06:39:10.318Z,0.3
2023-03-08T06:42:10.097Z,0.4
2023-03-08T06:45:10.229Z,0.5
2023-03-08T06:48:10.131Z,0.6
2023-03-08T06:51:10.190Z,0.7
2023-03-08T06:54:10.139Z,0.9
2023-03-08T06:57:12.383Z,1.1
2023-03-08T07:00:10.360Z,1.2
2023-03-08T07:03:10.123Z,1.3
2023-03-08T07:06:10.187Z,1.4
2023-03-08T07:09:10.290Z,1.5
2023-03-08T07:12:12.608Z,1.6
2023-03-08T07:15:10.085Z,1.6
2023-03-08T07:18:10.121Z,1.6
2023-03-08T07:21:10.110Z,1.7
2023-03-08T07:24:10.182Z,1.7
2023-03-08T07:27:10.228Z,1.8
2023-03-08T07:30:10.369Z,1.8
2023-03-08T07:33:10.330Z,1.9
2023-03-08T07:36:10.724Z,0
2023-03-08T07:39:10.167Z,0
2023-03-08T07:42:10.131Z,0.1
2023-03-08T07:45:10.243Z,0.1
2023-03-08T07:48:10.303Z,0.2
2023-03-08T07:51:10.156Z,0.3
2023-03-08T07:54:10.311Z,0.4
2023-03-08T07:57:10.178Z,0.7
2023-03-08T08:00:10.699Z,0.9
2023-03-08T08:03:10.499Z,1
2023-03-08T08:06:10.207Z,1.2
2023-03-08T08:09:10.086Z,1.4
2023-03-08T08:12:10.129Z,1.4
2023-03-08T08:15:10.105Z,1.4
2023-03-08T08:18:10.115Z,1.2
2023-03-08T08:21:10.087Z,1.1
2023-03-08T08:24:10.109Z,0.9
2023-03-08T08:27:10.194Z,0.9
2023-03-08T08:30:10.248Z,0.9
2023-03-08T08:33:10.126Z,0.9
2023-03-08T08:36:10.396Z,0.9
2023-03-08T08:39:10.117Z,0.9
2023-03-08T08:42:10.184Z,1
2023-03-08T08:45:10.155Z,1.1
2023-03-08T08:48:10.254Z,1.3
2023-03-08T08:51:10.094Z,1.3
2023-03-08T08:54:10.491Z,1.4
2023-03-08T08:57:10.069Z,1.4
2023-03-08T09:00:10.320Z,1.6
2023-03-08T09:03:10.196Z,1.6
2023-03-08T09:06:10.223Z,1.8
2023-03-08T09:09:10.209Z,2.1
2023-03-08T09:12:10.306Z,2.2
2023-03-08T09:15:10.180Z,2.6
2023-03-08T09:18:10.117Z,2.9
2023-03-08T09:21:10.295Z,2.9
2023-03-08T09:24:10.275Z,3.1
2023-03-08T09:27:10.179Z,2.9
2023-03-08T09:30:10.328Z,3.1
2023-03-08T09:33:10.358Z,3
2023-03-08T09:36:10.303Z,2.8
2023-03-08T09:39:10.215Z,2.7
2023-03-08T09:42:10.162Z,2.7
2023-03-08T09:45:12.125Z,2.9
2023-03-08T09:48:10.929Z,2.9
2023-03-08T09:51:10.171Z,2.8
2023-03-08T09:54:10.177Z,2.9
2023-03-08T09:57:10.264Z,3.1
2023-03-08T10:00:10.281Z,3.3
2023-03-08T10:03:10.666Z,3.7
2023-03-08T10:06:10.102Z,3.8
2023-03-08T10:09:10.052Z,4.1
2023-03-08T10:12:17.342Z,4
2023-03-08T10:15:10.274Z,3.8
2023-03-08T10:18:10.071Z,3.7
2023-03-08T10:21:10.093Z,3.8
2023-03-08T10:24:10.132Z,3.6
2023-03-08T10:27:11.808Z,3.5
2023-03-08T10:30:10.615Z,3.5
2023-03-08T10:33:10.264Z,3.5
2023-03-08T10:36:10.560Z,3.4
2023-03-08T10:39:14.031Z,3.6
2023-03-08T10:42:10.419Z,3.6
2023-03-08T10:45:10.208Z,3.8
2023-03-08T10:48:10.166Z,3.9
2023-03-08T10:51:10.204Z,4
2023-03-08T10:54:10.069Z,3.9
2023-03-08T10:57:10.239Z,3.7
2023-03-08T11:00:12.078Z,3.4
2023-03-08T11:03:10.152Z,3.4
2023-03-08T11:06:12.221Z,3.5
2023-03-08T11:09:10.139Z,3.4
2023-03-08T11:12:11.695Z,3.2
2023-03-08T11:15:10.235Z,3.1
2023-03-08T11:18:12.151Z,2.9
2023-03-08T11:21:10.151Z,2.9
2023-03-08T11:24:10.500Z,2.9
2023-03-08T11:27:10.671Z,2.9
2023-03-08T11:30:12.287Z,2.9
2023-03-08T11:36:12.034Z,2.6
2023-03-08T11:39:09.736Z,2.4
2023-03-08T11:42:12.165Z,2.4
2023-03-08T11:48:12.050Z,2.8
2023-03-08T11:51:09.805Z,2.8
2023-03-08T11:54:09.844Z,2.8
2023-03-08T11:57:09.859Z,2.9
2023-03-08T12:00:09.849Z,2.6
2023-03-08T12:03:09.932Z,2.3
2023-03-08T12:06:30.148Z,2.3
2023-03-08T12:09:10.462Z,2.4
2023-03-08T12:12:12.532Z,2.3
2023-03-08T12:15:10.217Z,2.4
2023-03-08T12:18:09.822Z,2.4
2023-03-08T12:21:09.873Z,2.2
2023-03-08T12:24:13.258Z,2
2023-03-08T12:27:09.826Z,1.9
2023-03-08T12:30:09.920Z,1.8
2023-03-08T12:33:11.104Z,1.7
2023-03-08T12:36:10.650Z,1.7
2023-03-08T12:39:10.446Z,1.6
2023-03-08T12:42:09.996Z,1.6
2023-03-08T12:45:09.725Z,1.5
2023-03-08T12:48:10.202Z,1.4
2023-03-08T12:51:10.031Z,1.4
2023-03-08T12:54:10.046Z,1.4
2023-03-08T12:57:09.774Z,1.5
2023-03-08T13:00:10.017Z,1.5
2023-03-08T13:03:09.894Z,1.5
2023-03-08T13:06:09.749Z,1.4
2023-03-08T13:09:09.757Z,1.4
2023-03-08T13:12:09.828Z,1.3
2023-03-08T13:15:09.938Z,1.2
2023-03-08T13:18:09.935Z,1.2
2023-03-08T13:21:09.931Z,1.2
2023-03-08T13:24:09.832Z,1.2
2023-03-08T13:27:09.970Z,1.2
2023-03-08T13:30:10.219Z,1.2
2023-03-08T13:33:09.846Z,1.3
2023-03-08T13:36:10.229Z,1.3
2023-03-08T13:39:10.001Z,1.1
2023-03-08T13:42:09.941Z,1.1
2023-03-08T13:45:09.837Z,1.1
2023-03-08T13:48:09.883Z,1.1
2023-03-08T13:51:09.797Z,1.1
2023-03-08T13:54:09.986Z,1.1
2023-03-08T13:57:10.314Z,1.1
2023-03-08T14:00:10.560Z,1.1
2023-03-08T14:03:10.148Z,0.9
2023-03-08T14:06:10.407Z,0.9
2023-03-08T14:09:09.849Z,0.9
2023-03-08T14:12:10.243Z,1
2023-03-08T14:15:10.241Z,0.9
2023-03-08T14:18:10.308Z,0.9
2023-03-08T14:21:10.356Z,0.9
2023-03-08T14:24:10.383Z,1
2023-03-08T14:27:10.068Z,1
2023-03-08T14:30:10.120Z,1
2023-03-08T14:33:09.889Z,0.9
2023-03-08T14:36:10.146Z,0.9
2023-03-08T14:39:09.866Z,0.9
2023-03-08T14:42:10.101Z,0.9
2023-03-08T14:45:09.819Z,0.9
2023-03-08T14:48:09.806Z,0.9
2023-03-08T14:51:09.868Z,0.9
2023-03-08T14:54:09.831Z,0.9
2023-03-08T14:57:09.778Z,0.9
2023-03-08T15:00:10.563Z,0.9
2023-03-08T15:03:09.757Z,0.9
2023-03-08T15:06:09.817Z,0.9
2023-03-08T15:09:09.835Z,0.9
2023-03-08T15:12:09.786Z,0.9
2023-03-08T15:15:09.825Z,0.9
2023-03-08T15:18:09.786Z,0.9
2023-03-08T15:21:09.722Z,0.9
2023-03-08T15:24:09.910Z,0.9
2023-03-08T15:27:09.700Z,0.9
2023-03-08T15:30:09.842Z,1
2023-03-08T15:33:09.853Z,1.1
2023-03-08T15:36:10.137Z,1.1
2023-03-08T15:39:09.820Z,1.1
2023-03-08T15:42:09.861Z,1.1
2023-03-08T15:45:09.855Z,1.1
2023-03-08T15:48:09.753Z,1.1
2023-03-08T15:51:09.990Z,1.1
2023-03-08T15:54:09.829Z,1.1
2023-03-08T15:57:09.752Z,1.1
2023-03-08T16:00:09.808Z,1
2023-03-08T16:03:09.832Z,1
2023-03-08T16:06:09.810Z,1
2023-03-08T16:09:09.821Z,1
2023-03-08T16:12:09.888Z,1
2023-03-08T16:15:10.386Z,1
2023-03-08T16:18:09.756Z,0.9
2023-03-08T16:21:09.888Z,0.9
2023-03-08T16:24:09.802Z,0.9
2023-03-08T16:27:09.813Z,0.8
2023-03-08T16:30:09.910Z,0.8
2023-03-08T16:33:09.777Z,0.8
2023-03-08T16:36:10.145Z,0.8
2023-03-08T16:39:09.823Z,0.8
2023-03-08T16:42:09.769Z,0.8
2023-03-08T16:45:09.988Z,0.7
2023-03-08T16:48:09.753Z,0.7
2023-03-08T16:51:09.737Z,0.6
2023-03-08T16:54:09.759Z,0.6
2023-03-08T16:57:28.157Z,0.6
2023-03-08T17:00:09.794Z,0.6
2023-03-08T17:03:09.803Z,0.6
2023-03-08T17:06:09.730Z,0.5
2023-03-08T17:09:11.854Z,0.5
2023-03-08T17:12:09.754Z,0.4
2023-03-08T17:15:09.719Z,0.4
2023-03-08T17:18:09.809Z,0.3
2023-03-08T17:21:09.739Z,0.3
2023-03-08T17:24:09.741Z,0.3
2023-03-08T17:27:09.663Z,0.2
2023-03-08T17:30:10.069Z,0.2
2023-03-08T17:33:09.733Z,0.2
2023-03-08T17:36:10.616Z,0.2
2023-03-08T17:39:09.732Z,0.1
2023-03-08T17:42:09.770Z,0.1
2023-03-08T17:45:09.660Z,0.1
2023-03-08T17:48:09.721Z,0.1
2023-03-08T17:51:09.725Z,0.1
2023-03-08T17:54:10.664Z,0.1
2023-03-08T17:57:09.693Z,0.1
2023-03-08T18:00:09.760Z,0.1
2023-03-08T18:03:09.652Z,0.1
2023-03-08T18:06:09.732Z,0.1
2023-03-08T18:09:09.841Z,0.1
2023-03-08T18:12:09.779Z,0.1
2023-03-08T18:15:09.724Z,0.1
2023-03-08T18:18:09.721Z,0.1
2023-03-08T18:21:23.101Z,0.1
2023-03-08T18:24:09.856Z,0.1
2023-03-08T18:27:09.719Z,0.1
2023-03-08T18:30:09.769Z,0.1
2023-03-08T18:33:09.822Z,0.1
2023-03-08T18:36:09.849Z,0.2
2023-03-08T18:39:09.727Z,0.2
2023-03-08T18:42:09.759Z,0.1
2023-03-08T18:45:09.736Z,0.1
2023-03-08T18:48:09.702Z,0.1
2023-03-08T18:51:09.684Z,0.1
2023-03-08T18:54:09.782Z,0.1
2023-03-08T18:57:09.765Z,0.2
2023-03-08T19:00:09.807Z,0.2
2023-03-08T19:03:09.682Z,0.2
2023-03-08T19:06:09.743Z,0.2
2023-03-08T19:09:09.726Z,0.2
2023-03-08T19:12:09.742Z,0.2
2023-03-08T19:15:09.733Z,0.2
2023-03-08T19:18:09.791Z,0.2
2023-03-08T19:21:09.804Z,0.3
2023-03-08T19:24:09.752Z,0.2
2023-03-08T19:27:09.794Z,0.3
2023-03-08T19:30:09.893Z,0.3
2023-03-08T19:33:12.515Z,0.3
2023-03-08T19:36:09.981Z,0.2
2023-03-08T19:39:09.643Z,0.2
2023-03-08T19:42:09.819Z,0.3
2023-03-08T19:45:09.756Z,0.2
2023-03-08T19:48:09.722Z,0.3
2023-03-08T19:51:09.742Z,0.3
2023-03-08T19:54:09.760Z,0.3
2023-03-08T19:57:09.724Z,0.2
2023-03-08T20:00:09.710Z,0.3
2023-03-08T20:03:10.285Z,0.3
2023-03-08T20:06:09.890Z,0.3
2023-03-08T20:09:09.657Z,0.3
2023-03-08T20:12:09.745Z,0.3
2023-03-08T20:15:09.895Z,0.3
2023-03-08T20:18:09.854Z,0.3
2023-03-08T20:21:09.750Z,0.3
2023-03-08T20:24:09.737Z,0.3
2023-03-08T20:27:09.817Z,0.3
2023-03-08T20:30:09.733Z,0.3
2023-03-08T20:33:09.753Z,0.3
2023-03-08T20:36:10.119Z,0.3
2023-03-08T20:39:09.753Z,0.3
2023-03-08T20:42:09.734Z,0.3
2023-03-08T20:45:09.680Z,0.3
2023-03-08T20:48:09.743Z,0.3
2023-03-08T20:51:09.734Z,0.3
2023-03-08T20:54:09.712Z,0.3
2023-03-08T20:57:09.668Z,0.3
2023-03-08T21:00:09.925Z,0.3
2023-03-08T21:03:09.957Z,0.3
2023-03-08T21:06:09.723Z,0.3
2023-03-08T21:09:09.881Z,0.3
2023-03-08T21:12:09.658Z,0.2
2023-03-08T21:15:11.829Z,0.3
2023-03-08T21:18:09.748Z,0.2
2023-03-08T21:21:09.923Z,0.2
2023-03-08T21:24:09.759Z,0.2
2023-03-08T21:27:09.728Z,0.2
2023-03-08T21:30:09.754Z,0.2
2023-03-08T21:33:09.744Z,0.2
2023-03-08T21:36:10.177Z,0.2
2023-03-08T21:39:09.741Z,0.2
2023-03-08T21:42:09.737Z,0.1
2023-03-08T21:45:09.946Z,0.2
2023-03-08T21:48:09.853Z,0.2
2023-03-08T21:51:09.789Z,0.2
2023-03-08T21:54:09.711Z,0.2
2023-03-08T21:57:09.728Z,0.2
2023-03-08T22:00:09.734Z,0.2
2023-03-08T22:03:10.539Z,0.2
2023-03-08T22:06:09.795Z,0.2
2023-03-08T22:09:09.709Z,0.2
2023-03-08T22:12:09.635Z,0.3
2023-03-08T22:15:09.725Z,0.3
2023-03-08T22:18:09.738Z,0.3
2023-03-08T22:21:09.693Z,0.3
2023-03-08T22:24:09.680Z,0.3
2023-03-08T22:27:09.693Z,0.3
2023-03-08T22:30:09.701Z,0.3
2023-03-08T22:33:09.740Z,0.3
2023-03-08T22:36:10.130Z,0.3
2023-03-08T22:39:09.777Z,0.2
2023-03-08T22:42:09.827Z,0.3
2023-03-08T22:45:09.751Z,0.3
2023-03-08T22:48:09.812Z,0.3
2023-03-08T22:51:20.593Z,0.3
2023-03-08T22:54:09.653Z,0.3
2023-03-08T22:57:09.748Z,0.3
2023-03-08T23:00:10.035Z,0.3
2023-03-08T23:03:10.045Z,0.3
2023-03-08T23:06:09.672Z,0.3
2023-03-08T23:09:09.776Z,0.3
2023-03-08T23:12:09.684Z,0.3
2023-03-08T23:15:09.732Z,0.3
2023-03-08T23:18:09.719Z,0.3
2023-03-08T23:21:09.891Z,0.3
2023-03-08T23:24:09.721Z,0.3
2023-03-08T23:27:09.699Z,0.3
2023-03-08T23:30:09.727Z,0.2
2023-03-08T23:33:09.720Z,0.2
2023-03-08T23:36:09.968Z,0.3
2023-03-08T23:39:09.797Z,0.3
2023-03-08T23:42:09.751Z,0.2
2023-03-08T23:45:09.712Z,0.2
2023-03-08T23:48:12.478Z,0.2
2023-03-08T23:51:09.665Z,0.2
2023-03-08T23:54:09.749Z,0.1
2023-03-08T23:57:09.779Z,0.1
